sensor_id;sensor_type;location;lat;lon;timestamp;P1;durP1;ratioP1;P2;durP2;ratioP2
46110;SDS011;31849;55.992;37.252;2022-12-16T00:02:35;21.63;;;11.07;;
46110;SDS011;31849;55.992;37.252;2022-12-16T00:07:39;21.67;;;11.07;;
46110;SDS011;31849;55.992;37.252;2022-12-16T00:12:44;23.03;;;11.40;;
46110;SDS011;31849;55.992;37.252;2022-12-16T00:22:52;18.02;;;9.65;;
46110;SDS011;31849;55.992;37.252;2022-12-16T00:27:57;19.03;;;11.20;;
46110;SDS011;31849;55.992;37.252;2022-12-16T00:33:01;22.03;;;10.97;;
46110;SDS011;31849;55.992;37.252;2022-12-16T00:38:04;20.03;;;10.50;;
46110;SDS011;31849;55.992;37.252;2022-12-16T00:43:09;21.40;;;10.57;;
46110;SDS011;31849;55.992;37.252;2022-12-16T00:48:13;22.10;;;11.00;;
46110;SDS011;31849;55.992;37.252;2022-12-16T00:53:17;19.67;;;10.07;;
46110;SDS011;31849;55.992;37.252;2022-12-16T00:58:23;20.45;;;10.13;;
46110;SDS011;31849;55.992;37.252;2022-12-16T01:08:29;17.23;;;10.23;;
46110;SDS011;31849;55.992;37.252;2022-12-16T01:13:34;17.90;;;9.87;;
46110;SDS011;31849;55.992;37.252;2022-12-16T01:18:37;19.25;;;8.65;;
46110;SDS011;31849;55.992;37.252;2022-12-16T01:23:41;18.43;;;9.33;;
46110;SDS011;31849;55.992;37.252;2022-12-16T01:28:47;20.52;;;10.45;;
46110;SDS011;31849;55.992;37.252;2022-12-16T01:33:51;19.47;;;10.67;;
46110;SDS011;31849;55.992;37.252;2022-12-16T01:38:55;18.90;;;10.07;;
46110;SDS011;31849;55.992;37.252;2022-12-16T01:44:12;17.48;;;9.13;;
46110;SDS011;31849;55.992;37.252;2022-12-16T01:49:19;15.33;;;8.43;;
46110;SDS011;31849;55.992;37.252;2022-12-16T01:54:27;18.60;;;9.60;;
46110;SDS011;31849;55.992;37.252;2022-12-16T01:59:52;15.47;;;9.17;;
46110;SDS011;31849;55.992;37.252;2022-12-16T02:04:57;17.60;;;9.45;;
46110;SDS011;31849;55.992;37.252;2022-12-16T02:10:18;14.52;;;8.75;;
46110;SDS011;31849;55.992;37.252;2022-12-16T02:15:42;17.73;;;9.07;;
46110;SDS011;31849;55.992;37.252;2022-12-16T02:26:46;17.00;;;9.48;;
46110;SDS011;31849;55.992;37.252;2022-12-16T02:32:24;17.35;;;9.65;;
46110;SDS011;31849;55.992;37.252;2022-12-16T02:37:36;16.70;;;9.23;;
46110;SDS011;31849;55.992;37.252;2022-12-16T02:42:46;17.63;;;8.32;;
46110;SDS011;31849;55.992;37.252;2022-12-16T02:47:57;15.77;;;8.98;;
46110;SDS011;31849;55.992;37.252;2022-12-16T02:53:00;17.52;;;8.68;;
46110;SDS011;31849;55.992;37.252;2022-12-16T02:58:08;16.33;;;8.55;;
46110;SDS011;31849;55.992;37.252;2022-12-16T03:03:21;17.65;;;9.35;;
46110;SDS011;31849;55.992;37.252;2022-12-16T03:08:32;16.02;;;9.52;;
46110;SDS011;31849;55.992;37.252;2022-12-16T03:13:40;16.05;;;8.50;;
46110;SDS011;31849;55.992;37.252;2022-12-16T03:18:48;16.17;;;8.68;;
46110;SDS011;31849;55.992;37.252;2022-12-16T03:24:12;16.23;;;8.93;;
46110;SDS011;31849;55.992;37.252;2022-12-16T03:29:18;17.02;;;8.77;;
46110;SDS011;31849;55.992;37.252;2022-12-16T03:34:30;15.70;;;8.57;;
46110;SDS011;31849;55.992;37.252;2022-12-16T03:39:55;14.90;;;8.50;;
46110;SDS011;31849;55.992;37.252;2022-12-16T03:45:04;13.50;;;7.55;;
46110;SDS011;31849;55.992;37.252;2022-12-16T03:50:11;14.88;;;7.97;;
46110;SDS011;31849;55.992;37.252;2022-12-16T03:55:14;11.52;;;6.82;;
46110;SDS011;31849;55.992;37.252;2022-12-16T04:00:18;13.27;;;6.68;;
46110;SDS011;31849;55.992;37.252;2022-12-16T04:05:23;10.90;;;7.00;;
46110;SDS011;31849;55.992;37.252;2022-12-16T04:10:27;12.07;;;7.63;;
46110;SDS011;31849;55.992;37.252;2022-12-16T04:15:44;13.45;;;7.68;;
46110;SDS011;31849;55.992;37.252;2022-12-16T04:21:15;12.70;;;7.38;;
46110;SDS011;31849;55.992;37.252;2022-12-16T04:26:35;11.20;;;7.07;;
46110;SDS011;31849;55.992;37.252;2022-12-16T04:31:52;12.30;;;7.60;;
46110;SDS011;31849;55.992;37.252;2022-12-16T04:36:59;13.20;;;7.50;;
46110;SDS011;31849;55.992;37.252;2022-12-16T04:42:21;12.23;;;7.93;;
46110;SDS011;31849;55.992;37.252;2022-12-16T04:47:59;12.65;;;7.30;;
46110;SDS011;31849;55.992;37.252;2022-12-16T04:53:37;13.32;;;8.05;;
46110;SDS011;31849;55.992;37.252;2022-12-16T04:58:58;14.13;;;7.93;;
46110;SDS011;31849;55.992;37.252;2022-12-16T05:04:36;13.02;;;7.47;;
46110;SDS011;31849;55.992;37.252;2022-12-16T05:10:00;11.77;;;7.45;;
46110;SDS011;31849;55.992;37.252;2022-12-16T05:15:21;13.00;;;7.85;;
46110;SDS011;31849;55.992;37.252;2022-12-16T05:20:42;11.77;;;7.07;;
46110;SDS011;31849;55.992;37.252;2022-12-16T05:26:04;12.38;;;7.60;;
46110;SDS011;31849;55.992;37.252;2022-12-16T05:31:27;13.87;;;7.80;;
46110;SDS011;31849;55.992;37.252;2022-12-16T05:37:05;10.32;;;6.70;;
46110;SDS011;31849;55.992;37.252;2022-12-16T05:42:27;11.27;;;7.57;;
46110;SDS011;31849;55.992;37.252;2022-12-16T05:47:48;12.35;;;7.43;;
46110;SDS011;31849;55.992;37.252;2022-12-16T05:53:08;12.07;;;7.35;;
46110;SDS011;31849;55.992;37.252;2022-12-16T05:58:31;12.30;;;7.88;;
46110;SDS011;31849;55.992;37.252;2022-12-16T06:03:51;11.20;;;7.72;;
46110;SDS011;31849;55.992;37.252;2022-12-16T06:09:18;13.38;;;7.88;;
46110;SDS011;31849;55.992;37.252;2022-12-16T06:14:40;15.77;;;9.20;;
46110;SDS011;31849;55.992;37.252;2022-12-16T06:20:01;13.05;;;7.85;;
46110;SDS011;31849;55.992;37.252;2022-12-16T06:25:22;11.35;;;6.47;;
46110;SDS011;31849;55.992;37.252;2022-12-16T06:30:44;11.05;;;6.22;;
46110;SDS011;31849;55.992;37.252;2022-12-16T06:36:05;10.93;;;6.82;;
46110;SDS011;31849;55.992;37.252;2022-12-16T06:41:26;10.68;;;6.13;;
46110;SDS011;31849;55.992;37.252;2022-12-16T06:46:49;10.95;;;6.70;;
46110;SDS011;31849;55.992;37.252;2022-12-16T06:52:10;10.77;;;6.90;;
46110;SDS011;31849;55.992;37.252;2022-12-16T06:57:31;12.70;;;7.18;;
46110;SDS011;31849;55.992;37.252;2022-12-16T07:02:52;10.75;;;6.90;;
46110;SDS011;31849;55.992;37.252;2022-12-16T07:08:13;12.77;;;6.72;;
46110;SDS011;31849;55.992;37.252;2022-12-16T07:13:33;12.02;;;7.32;;
46110;SDS011;31849;55.992;37.252;2022-12-16T07:18:55;11.60;;;6.63;;
46110;SDS011;31849;55.992;37.252;2022-12-16T07:24:15;12.63;;;6.40;;
46110;SDS011;31849;55.992;37.252;2022-12-16T07:29:36;13.05;;;7.13;;
46110;SDS011;31849;55.992;37.252;2022-12-16T07:34:58;10.65;;;7.05;;
46110;SDS011;31849;55.992;37.252;2022-12-16T07:40:19;10.88;;;6.55;;
46110;SDS011;31849;55.992;37.252;2022-12-16T07:45:40;13.05;;;7.72;;
46110;SDS011;31849;55.992;37.252;2022-12-16T07:51:05;12.27;;;7.07;;
46110;SDS011;31849;55.992;37.252;2022-12-16T07:56:25;11.63;;;8.02;;
46110;SDS011;31849;55.992;37.252;2022-12-16T08:01:46;11.52;;;7.18;;
46110;SDS011;31849;55.992;37.252;2022-12-16T08:07:09;11.85;;;7.07;;
46110;SDS011;31849;55.992;37.252;2022-12-16T08:12:30;10.90;;;6.50;;
46110;SDS011;31849;55.992;37.252;2022-12-16T08:17:51;11.90;;;7.47;;
46110;SDS011;31849;55.992;37.252;2022-12-16T08:23:13;11.10;;;6.90;;
46110;SDS011;31849;55.992;37.252;2022-12-16T08:28:34;10.45;;;6.65;;
46110;SDS011;31849;55.992;37.252;2022-12-16T08:33:55;11.02;;;6.75;;
46110;SDS011;31849;55.992;37.252;2022-12-16T08:39:17;11.45;;;6.88;;
46110;SDS011;31849;55.992;37.252;2022-12-16T08:44:38;10.25;;;6.72;;
46110;SDS011;31849;55.992;37.252;2022-12-16T08:49:58;11.57;;;6.25;;
46110;SDS011;31849;55.992;37.252;2022-12-16T08:55:21;10.40;;;6.78;;
46110;SDS011;31849;55.992;37.252;2022-12-16T09:00:41;12.27;;;7.35;;
46110;SDS011;31849;55.992;37.252;2022-12-16T09:06:08;12.43;;;7.18;;
46110;SDS011;31849;55.992;37.252;2022-12-16T09:11:30;9.80;;;6.63;;
46110;SDS011;31849;55.992;37.252;2022-12-16T09:16:51;10.98;;;6.85;;
46110;SDS011;31849;55.992;37.252;2022-12-16T09:22:12;9.80;;;6.88;;
46110;SDS011;31849;55.992;37.252;2022-12-16T09:27:34;11.48;;;7.15;;
46110;SDS011;31849;55.992;37.252;2022-12-16T09:32:56;13.45;;;7.65;;
46110;SDS011;31849;55.992;37.252;2022-12-16T09:38:17;11.27;;;6.53;;
46110;SDS011;31849;55.992;37.252;2022-12-16T09:43:46;9.02;;;6.20;;
46110;SDS011;31849;55.992;37.252;2022-12-16T09:49:21;10.75;;;6.45;;
46110;SDS011;31849;55.992;37.252;2022-12-16T09:54:55;11.07;;;6.90;;
46110;SDS011;31849;55.992;37.252;2022-12-16T10:00:19;10.65;;;6.40;;
46110;SDS011;31849;55.992;37.252;2022-12-16T10:05:43;12.02;;;7.43;;
46110;SDS011;31849;55.992;37.252;2022-12-16T10:11:14;12.53;;;7.03;;
46110;SDS011;31849;55.992;37.252;2022-12-16T10:16:43;11.45;;;6.45;;
46110;SDS011;31849;55.992;37.252;2022-12-16T10:22:13;9.35;;;6.57;;
46110;SDS011;31849;55.992;37.252;2022-12-16T10:27:42;9.80;;;6.72;;
46110;SDS011;31849;55.992;37.252;2022-12-16T10:33:07;9.33;;;5.90;;
46110;SDS011;31849;55.992;37.252;2022-12-16T10:38:35;9.38;;;5.75;;
46110;SDS011;31849;55.992;37.252;2022-12-16T10:43:59;10.20;;;7.13;;
46110;SDS011;31849;55.992;37.252;2022-12-16T10:49:24;11.63;;;7.10;;
46110;SDS011;31849;55.992;37.252;2022-12-16T10:54:55;10.23;;;6.87;;
46110;SDS011;31849;55.992;37.252;2022-12-16T11:00:38;10.97;;;6.70;;
46110;SDS011;31849;55.992;37.252;2022-12-16T11:06:02;11.27;;;7.03;;
46110;SDS011;31849;55.992;37.252;2022-12-16T11:11:25;12.57;;;6.75;;
46110;SDS011;31849;55.992;37.252;2022-12-16T11:16:48;11.15;;;6.00;;
46110;SDS011;31849;55.992;37.252;2022-12-16T11:22:35;11.88;;;7.43;;
46110;SDS011;31849;55.992;37.252;2022-12-16T11:28:01;9.88;;;6.75;;
46110;SDS011;31849;55.992;37.252;2022-12-16T11:33:22;10.52;;;7.20;;
46110;SDS011;31849;55.992;37.252;2022-12-16T11:38:48;12.45;;;7.05;;
46110;SDS011;31849;55.992;37.252;2022-12-16T11:44:14;10.90;;;7.13;;
46110;SDS011;31849;55.992;37.252;2022-12-16T11:49:37;12.13;;;7.50;;
46110;SDS011;31849;55.992;37.252;2022-12-16T11:55:03;11.52;;;7.03;;
46110;SDS011;31849;55.992;37.252;2022-12-16T12:00:53;12.45;;;7.20;;
46110;SDS011;31849;55.992;37.252;2022-12-16T12:06:22;12.95;;;7.43;;
46110;SDS011;31849;55.992;37.252;2022-12-16T12:11:53;11.45;;;7.47;;
46110;SDS011;31849;55.992;37.252;2022-12-16T12:17:22;13.68;;;8.00;;
46110;SDS011;31849;55.992;37.252;2022-12-16T12:22:48;14.10;;;8.48;;
46110;SDS011;31849;55.992;37.252;2022-12-16T12:28:13;15.07;;;8.93;;
46110;SDS011;31849;55.992;37.252;2022-12-16T12:33:44;16.03;;;9.50;;
46110;SDS011;31849;55.992;37.252;2022-12-16T12:39:16;16.25;;;9.80;;
46110;SDS011;31849;55.992;37.252;2022-12-16T12:44:45;14.35;;;8.70;;
46110;SDS011;31849;55.992;37.252;2022-12-16T12:50:15;14.77;;;8.37;;
46110;SDS011;31849;55.992;37.252;2022-12-16T12:55:41;14.93;;;8.57;;
46110;SDS011;31849;55.992;37.252;2022-12-16T13:01:10;11.67;;;6.97;;
46110;SDS011;31849;55.992;37.252;2022-12-16T13:06:33;10.80;;;6.27;;
46110;SDS011;31849;55.992;37.252;2022-12-16T13:23:39;10.17;;;6.67;;
46110;SDS011;31849;55.992;37.252;2022-12-16T13:29:05;11.95;;;7.57;;
46110;SDS011;31849;55.992;37.252;2022-12-16T13:34:38;11.37;;;7.20;;
46110;SDS011;31849;55.992;37.252;2022-12-16T13:40:15;11.77;;;7.00;;
46110;SDS011;31849;55.992;37.252;2022-12-16T13:45:39;12.05;;;7.32;;
46110;SDS011;31849;55.992;37.252;2022-12-16T13:51:03;13.23;;;7.88;;
46110;SDS011;31849;55.992;37.252;2022-12-16T13:56:25;13.30;;;7.70;;
46110;SDS011;31849;55.992;37.252;2022-12-16T14:01:53;12.87;;;8.10;;
46110;SDS011;31849;55.992;37.252;2022-12-16T14:07:17;14.93;;;8.48;;
46110;SDS011;31849;55.992;37.252;2022-12-16T14:12:46;13.32;;;8.38;;
46110;SDS011;31849;55.992;37.252;2022-12-16T14:18:18;12.73;;;7.95;;
46110;SDS011;31849;55.992;37.252;2022-12-16T14:23:49;12.37;;;8.03;;
46110;SDS011;31849;55.992;37.252;2022-12-16T14:29:18;17.20;;;7.87;;
46110;SDS011;31849;55.992;37.252;2022-12-16T14:34:41;14.20;;;6.73;;
46110;SDS011;31849;55.992;37.252;2022-12-16T14:40:17;11.83;;;6.80;;
46110;SDS011;31849;55.992;37.252;2022-12-16T14:45:39;11.40;;;6.93;;
46110;SDS011;31849;55.992;37.252;2022-12-16T14:56:55;10.23;;;5.87;;
46110;SDS011;31849;55.992;37.252;2022-12-16T15:02:19;11.80;;;6.97;;
46110;SDS011;31849;55.992;37.252;2022-12-16T15:07:45;10.53;;;6.67;;
46110;SDS011;31849;55.992;37.252;2022-12-16T15:13:10;10.87;;;6.17;;
46110;SDS011;31849;55.992;37.252;2022-12-16T15:18:36;10.67;;;6.70;;
46110;SDS011;31849;55.992;37.252;2022-12-16T15:24:00;10.43;;;6.20;;
46110;SDS011;31849;55.992;37.252;2022-12-16T15:29:34;10.37;;;6.47;;
46110;SDS011;31849;55.992;37.252;2022-12-16T15:34:56;10.00;;;6.67;;
46110;SDS011;31849;55.992;37.252;2022-12-16T15:40:21;10.37;;;6.47;;
46110;SDS011;31849;55.992;37.252;2022-12-16T15:45:48;12.07;;;6.70;;
46110;SDS011;31849;55.992;37.252;2022-12-16T15:51:19;10.95;;;6.18;;
46110;SDS011;31849;55.992;37.252;2022-12-16T15:56:42;10.60;;;6.43;;
46110;SDS011;31849;55.992;37.252;2022-12-16T16:02:05;10.40;;;6.13;;
46110;SDS011;31849;55.992;37.252;2022-12-16T16:07:33;9.23;;;5.40;;
46110;SDS011;31849;55.992;37.252;2022-12-16T16:12:57;8.60;;;5.80;;
46110;SDS011;31849;55.992;37.252;2022-12-16T16:18:19;8.90;;;5.50;;
46110;SDS011;31849;55.992;37.252;2022-12-16T16:23:40;10.23;;;5.50;;
46110;SDS011;31849;55.992;37.252;2022-12-16T16:29:01;8.30;;;5.37;;
46110;SDS011;31849;55.992;37.252;2022-12-16T16:34:23;10.27;;;6.63;;
46110;SDS011;31849;55.992;37.252;2022-12-16T16:39:44;10.83;;;6.40;;
46110;SDS011;31849;55.992;37.252;2022-12-16T16:45:16;12.23;;;6.30;;
46110;SDS011;31849;55.992;37.252;2022-12-16T16:50:38;9.23;;;5.80;;
46110;SDS011;31849;55.992;37.252;2022-12-16T16:55:59;10.93;;;6.00;;
46110;SDS011;31849;55.992;37.252;2022-12-16T17:01:25;10.27;;;6.57;;
46110;SDS011;31849;55.992;37.252;2022-12-16T17:06:48;10.67;;;6.30;;
46110;SDS011;31849;55.992;37.252;2022-12-16T17:12:13;9.90;;;6.57;;
46110;SDS011;31849;55.992;37.252;2022-12-16T17:17:39;11.27;;;6.40;;
46110;SDS011;31849;55.992;37.252;2022-12-16T17:23:01;10.60;;;5.97;;
46110;SDS011;31849;55.992;37.252;2022-12-16T17:28:22;10.23;;;6.33;;
46110;SDS011;31849;55.992;37.252;2022-12-16T17:33:43;10.50;;;6.63;;
46110;SDS011;31849;55.992;37.252;2022-12-16T17:39:05;12.50;;;6.83;;
46110;SDS011;31849;55.992;37.252;2022-12-16T17:44:26;11.07;;;6.47;;
46110;SDS011;31849;55.992;37.252;2022-12-16T17:49:47;11.13;;;7.00;;
46110;SDS011;31849;55.992;37.252;2022-12-16T17:55:09;11.43;;;6.13;;
46110;SDS011;31849;55.992;37.252;2022-12-16T18:00:30;11.33;;;6.73;;
46110;SDS011;31849;55.992;37.252;2022-12-16T18:05:54;9.17;;;6.40;;
46110;SDS011;31849;55.992;37.252;2022-12-16T18:11:17;10.63;;;6.57;;
46110;SDS011;31849;55.992;37.252;2022-12-16T18:16:39;12.07;;;7.30;;
46110;SDS011;31849;55.992;37.252;2022-12-16T18:22:00;14.10;;;7.70;;
46110;SDS011;31849;55.992;37.252;2022-12-16T18:27:23;14.43;;;8.63;;
46110;SDS011;31849;55.992;37.252;2022-12-16T18:32:44;18.93;;;11.13;;
46110;SDS011;31849;55.992;37.252;2022-12-16T18:38:04;17.77;;;10.30;;
46110;SDS011;31849;55.992;37.252;2022-12-16T18:43:27;14.33;;;8.93;;
46110;SDS011;31849;55.992;37.252;2022-12-16T18:48:47;16.17;;;9.80;;
46110;SDS011;31849;55.992;37.252;2022-12-16T18:54:08;14.80;;;8.97;;
46110;SDS011;31849;55.992;37.252;2022-12-16T18:59:30;15.67;;;9.57;;
46110;SDS011;31849;55.992;37.252;2022-12-16T19:04:51;18.47;;;10.77;;
46110;SDS011;31849;55.992;37.252;2022-12-16T19:10:12;17.50;;;10.43;;
46110;SDS011;31849;55.992;37.252;2022-12-16T19:15:34;17.10;;;10.10;;
46110;SDS011;31849;55.992;37.252;2022-12-16T19:20:55;17.93;;;10.97;;
46110;SDS011;31849;55.992;37.252;2022-12-16T19:26:16;18.03;;;10.13;;
46110;SDS011;31849;55.992;37.252;2022-12-16T19:31:38;21.03;;;10.60;;
46110;SDS011;31849;55.992;37.252;2022-12-16T19:36:59;17.27;;;10.17;;
46110;SDS011;31849;55.992;37.252;2022-12-16T19:42:20;23.53;;;12.60;;
46110;SDS011;31849;55.992;37.252;2022-12-16T19:47:59;18.17;;;10.90;;
46110;SDS011;31849;55.992;37.252;2022-12-16T19:53:23;18.93;;;10.50;;
46110;SDS011;31849;55.992;37.252;2022-12-16T19:58:52;19.70;;;11.30;;
46110;SDS011;31849;55.992;37.252;2022-12-16T20:04:14;17.83;;;11.03;;
46110;SDS011;31849;55.992;37.252;2022-12-16T20:09:35;20.57;;;11.60;;
46110;SDS011;31849;55.992;37.252;2022-12-16T20:14:56;19.73;;;11.37;;
46110;SDS011;31849;55.992;37.252;2022-12-16T20:20:18;21.70;;;12.03;;
46110;SDS011;31849;55.992;37.252;2022-12-16T20:25:39;21.93;;;12.70;;
46110;SDS011;31849;55.992;37.252;2022-12-16T20:31:00;22.63;;;12.93;;
46110;SDS011;31849;55.992;37.252;2022-12-16T20:36:22;23.80;;;13.43;;
46110;SDS011;31849;55.992;37.252;2022-12-16T20:41:43;24.10;;;13.50;;
46110;SDS011;31849;55.992;37.252;2022-12-16T20:47:04;21.80;;;13.20;;
46110;SDS011;31849;55.992;37.252;2022-12-16T20:52:38;23.77;;;14.37;;
46110;SDS011;31849;55.992;37.252;2022-12-16T20:57:59;25.30;;;14.33;;
46110;SDS011;31849;55.992;37.252;2022-12-16T21:03:20;24.40;;;13.47;;
46110;SDS011;31849;55.992;37.252;2022-12-16T21:08:42;25.33;;;14.53;;
46110;SDS011;31849;55.992;37.252;2022-12-16T21:14:03;26.70;;;15.13;;
46110;SDS011;31849;55.992;37.252;2022-12-16T21:19:24;27.07;;;15.23;;
46110;SDS011;31849;55.992;37.252;2022-12-16T21:24:46;25.43;;;14.07;;
46110;SDS011;31849;55.992;37.252;2022-12-16T21:30:07;23.93;;;13.83;;
46110;SDS011;31849;55.992;37.252;2022-12-16T21:35:29;24.07;;;13.93;;
46110;SDS011;31849;55.992;37.252;2022-12-16T21:40:54;26.43;;;13.80;;
46110;SDS011;31849;55.992;37.252;2022-12-16T21:46:14;24.30;;;13.73;;
46110;SDS011;31849;55.992;37.252;2022-12-16T21:51:35;23.60;;;14.27;;
46110;SDS011;31849;55.992;37.252;2022-12-16T21:56:58;27.33;;;14.47;;
46110;SDS011;31849;55.992;37.252;2022-12-16T22:02:19;26.53;;;14.97;;
46110;SDS011;31849;55.992;37.252;2022-12-16T22:07:39;29.43;;;16.50;;
46110;SDS011;31849;55.992;37.252;2022-12-16T22:13:01;26.70;;;15.27;;
46110;SDS011;31849;55.992;37.252;2022-12-16T22:18:22;27.10;;;15.57;;
46110;SDS011;31849;55.992;37.252;2022-12-16T22:23:43;29.13;;;16.10;;
46110;SDS011;31849;55.992;37.252;2022-12-16T22:29:05;28.40;;;15.83;;
46110;SDS011;31849;55.992;37.252;2022-12-16T22:34:26;30.57;;;16.43;;
46110;SDS011;31849;55.992;37.252;2022-12-16T22:39:58;29.07;;;16.47;;
46110;SDS011;31849;55.992;37.252;2022-12-16T22:45:20;33.57;;;17.53;;
46110;SDS011;31849;55.992;37.252;2022-12-16T22:50:44;30.77;;;16.80;;
46110;SDS011;31849;55.992;37.252;2022-12-16T22:56:16;30.53;;;17.13;;
46110;SDS011;31849;55.992;37.252;2022-12-16T23:01:38;29.58;;;16.23;;
46110;SDS011;31849;55.992;37.252;2022-12-16T23:06:59;30.40;;;16.70;;
46110;SDS011;31849;55.992;37.252;2022-12-16T23:12:22;33.03;;;18.43;;
46110;SDS011;31849;55.992;37.252;2022-12-16T23:17:45;33.10;;;17.70;;
46110;SDS011;31849;55.992;37.252;2022-12-16T23:23:05;33.07;;;16.90;;
46110;SDS011;31849;55.992;37.252;2022-12-16T23:28:26;29.63;;;17.13;;
46110;SDS011;31849;55.992;37.252;2022-12-16T23:33:48;30.30;;;16.63;;
46110;SDS011;31849;55.992;37.252;2022-12-16T23:39:10;30.60;;;16.83;;
46110;SDS011;31849;55.992;37.252;2022-12-16T23:44:31;30.00;;;16.15;;
46110;SDS011;31849;55.992;37.252;2022-12-16T23:49:58;29.93;;;17.27;;
46110;SDS011;31849;55.992;37.252;2022-12-16T23:55:19;29.63;;;17.07;;
